createdAt,value
2022-12-01T00:05:01.338Z,6.45
2022-12-01T00:20:03.816Z,6.55
2022-12-01T00:35:06.736Z,6.18
2022-12-01T00:50:09.115Z,6.57
2022-12-01T01:05:11.136Z,6.30
2022-12-01T01:20:13.516Z,6.28
2022-12-01T01:35:15.556Z,5.60
2022-12-01T01:50:20.675Z,5.90
2022-12-01T02:05:32.414Z,7.40
2022-12-01T02:20:55.675Z,7.03
2022-12-01T02:36:10.573Z,7.18
2022-12-01T02:51:29.196Z,8.43
2022-12-01T03:06:54.604Z,8.13
2022-12-01T03:22:10.177Z,9.57
2022-12-01T03:37:22.735Z,10.00
2022-12-01T03:52:39.834Z,10.40
2022-12-01T04:07:41.843Z,10.60
2022-12-01T04:22:44.435Z,12.10
2022-12-01T04:37:46.476Z,11.20
2022-12-01T04:52:48.495Z,13.15
2022-12-01T05:07:50.433Z,12.38
2022-12-01T05:23:05.218Z,11.90
2022-12-01T05:38:08.495Z,12.57
2022-12-01T05:53:12.595Z,12.38
2022-12-01T06:08:14.714Z,13.43
2022-12-01T06:23:16.673Z,12.98
2022-12-01T06:38:18.616Z,12.55
2022-12-01T06:53:20.537Z,13.75
2022-12-01T07:08:22.435Z,13.57
2022-12-01T07:23:24.355Z,14.02
2022-12-01T07:38:28.975Z,12.50
2022-12-01T07:53:31.758Z,13.32
2022-12-01T08:08:35.828Z,16.52
2022-12-01T08:23:37.822Z,13.82
2022-12-01T08:38:39.835Z,14.48
2022-12-01T08:53:45.768Z,13.85
2022-12-01T09:08:48.414Z,14.38
2022-12-01T09:23:51.414Z,15.07
2022-12-01T09:38:53.393Z,14.30
2022-12-01T09:54:00.016Z,13.25
2022-12-01T10:09:07.816Z,13.40
2022-12-01T10:24:18.489Z,14.02
2022-12-01T10:39:28.556Z,15.32
2022-12-01T10:54:39.674Z,14.67
2022-12-01T11:09:41.715Z,14.02
2022-12-01T11:25:04.974Z,15.77
2022-12-01T11:40:46.375Z,16.25
2022-12-01T11:55:48.436Z,16.10
2022-12-01T12:11:18.276Z,14.95
2022-12-01T12:26:55.376Z,18.50
2022-12-01T12:41:58.914Z,16.25
2022-12-01T12:57:16.216Z,16.55
2022-12-01T13:12:32.747Z,13.63
2022-12-01T13:27:38.681Z,14.10
2022-12-01T13:42:41.317Z,15.82
2022-12-01T13:57:58.635Z,16.65
2022-12-01T14:13:04.334Z,21.13
2022-12-01T14:28:16.300Z,17.95
2022-12-01T14:43:37.162Z,18.17
2022-12-01T14:58:39.255Z,19.05
2022-12-01T15:13:57.885Z,16.45
2022-12-01T15:29:17.850Z,11.95
2022-12-01T15:44:29.534Z,12.77
2022-12-01T15:59:44.512Z,11.05
2022-12-01T16:15:01.858Z,11.68
2022-12-01T16:30:21.020Z,10.63
2022-12-01T16:45:27.629Z,11.07
2022-12-01T17:00:29.986Z,11.38
2022-12-01T17:15:32.030Z,9.90
2022-12-01T17:30:36.178Z,9.77
2022-12-01T17:45:42.259Z,10.07
2022-12-01T18:00:44.261Z,10.60
2022-12-01T18:15:46.323Z,11.55
2022-12-01T18:30:49.482Z,11.40
2022-12-01T18:45:51.918Z,13.43
2022-12-01T19:00:53.904Z,11.10
2022-12-01T19:15:56.009Z,11.43
2022-12-01T19:30:58.186Z,12.90
2022-12-01T19:46:05.671Z,12.82
2022-12-01T20:01:10.326Z,14.70
2022-12-01T20:16:21.837Z,14.43
2022-12-01T20:31:26.771Z,13.85
2022-12-01T20:46:28.921Z,16.33
2022-12-01T21:01:30.973Z,15.73
2022-12-01T21:16:34.125Z,14.98
2022-12-01T21:31:37.416Z,16.77
2022-12-01T21:46:41.699Z,15.32
2022-12-01T22:01:43.794Z,15.25
2022-12-01T22:16:51.800Z,15.38
2022-12-01T22:32:13.924Z,17.42
2022-12-01T22:47:15.859Z,14.45
2022-12-01T23:02:23.983Z,14.40
2022-12-01T23:17:31.352Z,15.55
2022-12-01T23:32:33.392Z,13.95
2022-12-01T23:47:35.333Z,14.13
